Terminal Aerodrome Forecast
Issued by NWS

Home | Current Version | Previous Version | Text Only | Print | Product List | Glossary On
Versions: 1 2 3 4 5 6 7 8 9 10 11 12 13 14 15 16 17
000
FTUS43 KAPX 172320
TAFPLN
TAF
KPLN 172320Z 1800/1824 24004KT P6SM SKC
     FM180800 21006KT P6SM SKC WS012/24030KT
     FM181300 21008KT P6SM SKC
     FM181600 22012G21KT P6SM SKC=

USA.gov is the U.S. government's official web portal to all federal, state and local government web resources and services.